createdAt,value
2022-10-01T00:00:54.124Z,100.00
2022-10-01T00:04:09.133Z,100.00
2022-10-01T00:07:11.044Z,100.00
2022-10-01T00:10:27.106Z,100.00
2022-10-01T00:13:29.769Z,100.00
2022-10-01T00:16:44.157Z,100.00
2022-10-01T00:19:52.121Z,100.00
2022-10-01T00:23:00.610Z,100.00
2022-10-01T00:26:21.144Z,100.00
2022-10-01T00:29:29.680Z,100.00
2022-10-01T00:32:44.134Z,100.00
2022-10-01T00:35:52.132Z,100.00
2022-10-01T00:39:07.141Z,100.00
2022-10-01T00:42:30.134Z,100.00
2022-10-01T00:45:38.779Z,100.00
2022-10-01T00:48:57.160Z,100.00
2022-10-01T00:52:16.138Z,100.00
2022-10-01T00:55:28.780Z,100.00
2022-10-01T00:58:43.132Z,100.00
2022-10-01T01:01:52.465Z,100.00
2022-10-01T01:05:01.140Z,100.00
2022-10-01T01:08:17.120Z,100.00
2022-10-01T01:11:44.341Z,100.00
2022-10-01T01:15:28.141Z,100.00
2022-10-01T01:18:58.117Z,100.00
2022-10-01T01:22:10.200Z,100.00
2022-10-01T01:25:28.145Z,100.00
2022-10-01T01:28:53.115Z,100.00
2022-10-01T01:32:01.276Z,100.00
2022-10-01T01:35:21.145Z,100.00
2022-10-01T01:38:30.308Z,100.00
2022-10-01T01:41:51.183Z,100.00
2022-10-01T01:45:08.161Z,100.00
2022-10-01T01:48:17.144Z,100.00
2022-10-01T01:52:18.162Z,100.00
2022-10-01T01:55:28.750Z,100.00
2022-10-01T01:58:40.152Z,100.00
2022-10-01T02:01:48.722Z,100.00
2022-10-01T02:05:03.156Z,100.00
2022-10-01T02:08:30.141Z,100.00
2022-10-01T02:11:53.151Z,100.00
2022-10-01T02:15:04.626Z,100.00
2022-10-01T02:18:40.139Z,100.00
2022-10-01T02:21:48.608Z,100.00
2022-10-01T02:25:06.132Z,100.00
2022-10-01T02:28:26.258Z,100.00
2022-10-01T02:31:36.517Z,100.00
2022-10-01T02:34:54.160Z,100.00
2022-10-01T02:38:05.142Z,100.00
2022-10-01T02:41:16.719Z,100.00
2022-10-01T02:44:37.136Z,100.00
2022-10-01T02:47:48.935Z,100.00
2022-10-01T02:51:13.152Z,100.00
2022-10-01T02:54:31.205Z,100.00
2022-10-01T02:57:46.152Z,100.00
2022-10-01T03:01:01.153Z,100.00
2022-10-01T03:04:09.842Z,100.00
2022-10-01T03:07:18.188Z,100.00
2022-10-01T03:10:34.181Z,100.00
2022-10-01T03:13:36.016Z,100.00
2022-10-01T03:16:51.145Z,100.00
2022-10-01T03:20:07.173Z,100.00
2022-10-01T03:23:22.149Z,100.00
2022-10-01T03:26:30.151Z,100.00
2022-10-01T03:29:45.133Z,100.00
2022-10-01T03:32:53.131Z,100.00
2022-10-01T03:36:10.140Z,100.00
2022-10-01T03:39:19.333Z,100.00
2022-10-01T03:42:34.152Z,100.00
2022-10-01T03:45:35.966Z,100.00
2022-10-01T03:48:51.145Z,100.00
2022-10-01T03:51:52.911Z,100.00
2022-10-01T03:55:08.132Z,100.00
2022-10-01T03:58:16.741Z,100.00
2022-10-01T04:01:31.530Z,100.00
2022-10-01T04:04:39.643Z,100.00
2022-10-01T04:07:49.174Z,100.00
2022-10-01T04:10:57.766Z,100.00
2022-10-01T04:14:06.156Z,100.00
2022-10-01T04:17:21.131Z,100.00
2022-10-01T04:20:29.689Z,100.00
2022-10-01T04:23:44.135Z,100.00
2022-10-01T04:26:52.607Z,100.00
2022-10-01T04:30:01.142Z,100.00
2022-10-01T04:33:23.175Z,100.00
2022-10-01T04:36:38.146Z,100.00
2022-10-01T04:39:46.180Z,100.00
2022-10-01T04:43:05.785Z,100.00
2022-10-01T04:46:20.198Z,100.00
2022-10-01T04:49:28.143Z,100.00
2022-10-01T04:52:36.970Z,100.00
2022-10-01T04:55:52.175Z,100.00
2022-10-01T04:58:54.185Z,100.00
2022-10-01T05:02:09.225Z,100.00
2022-10-01T05:05:19.526Z,100.00
2022-10-01T05:08:34.163Z,100.00
2022-10-01T05:11:49.166Z,100.00
2022-10-01T05:14:55.531Z,100.00
2022-10-01T05:18:18.168Z,100.00
2022-10-01T05:21:33.389Z,100.00
2022-10-01T05:24:35.745Z,100.00
2022-10-01T05:27:50.172Z,100.00
2022-10-01T05:31:02.618Z,100.00
2022-10-01T05:34:11.151Z,100.00
2022-10-01T05:37:26.172Z,100.00
2022-10-01T05:40:29.140Z,100.00
2022-10-01T05:43:44.182Z,100.00
2022-10-01T05:46:53.360Z,100.00
2022-10-01T05:50:01.180Z,100.00
2022-10-01T05:53:18.142Z,100.00
2022-10-01T05:56:33.165Z,100.00
2022-10-01T05:59:48.170Z,100.00
2022-10-01T06:03:04.326Z,100.00
2022-10-01T06:06:06.225Z,100.00
2022-10-01T06:09:21.178Z,100.00
2022-10-01T06:12:29.169Z,100.00
2022-10-01T06:15:45.173Z,100.00
2022-10-01T06:19:00.465Z,100.00
2022-10-01T06:22:15.208Z,100.00
2022-10-01T06:25:23.158Z,100.00
2022-10-01T06:28:32.772Z,100.00
2022-10-01T06:31:41.183Z,100.00
2022-10-01T06:34:49.710Z,100.00
2022-10-01T06:38:05.163Z,100.00
2022-10-01T06:41:13.717Z,100.00
2022-10-01T06:44:22.166Z,100.00
2022-10-01T06:47:37.154Z,100.00
2022-10-01T06:50:38.940Z,100.00
2022-10-01T06:53:54.145Z,100.00
2022-10-01T06:57:09.169Z,100.00
2022-10-01T07:00:24.166Z,100.00
2022-10-01T07:03:32.189Z,100.00
2022-10-01T07:06:40.706Z,100.00
2022-10-01T07:09:49.158Z,100.00
2022-10-01T07:13:15.161Z,100.00
2022-10-01T07:16:37.209Z,100.00
2022-10-01T07:19:45.211Z,100.00
2022-10-01T07:23:07.217Z,100.00
2022-10-01T07:26:15.731Z,100.00
2022-10-01T07:29:24.155Z,100.00
2022-10-01T07:32:32.958Z,100.00
2022-10-01T07:35:48.179Z,100.00
2022-10-01T07:38:56.156Z,100.00
2022-10-01T07:42:11.146Z,100.00
2022-10-01T07:45:20.234Z,100.00
2022-10-01T07:48:28.201Z,100.00
2022-10-01T07:51:37.087Z,100.00
2022-10-01T07:54:52.165Z,100.00
2022-10-01T07:58:02.167Z,100.00
2022-10-01T08:01:10.782Z,100.00
2022-10-01T08:04:29.150Z,100.00
2022-10-01T08:07:38.187Z,100.00
2022-10-01T08:10:53.185Z,100.00
2022-10-01T08:14:08.175Z,100.00
2022-10-01T08:17:16.189Z,100.00
2022-10-01T08:20:35.451Z,100.00
2022-10-01T08:23:50.172Z,100.00
2022-10-01T08:27:00.185Z,100.00
2022-10-01T08:30:16.160Z,100.00
2022-10-01T08:33:24.174Z,100.00
2022-10-01T08:36:32.707Z,100.00
2022-10-01T08:39:47.170Z,100.00
2022-10-01T08:43:02.184Z,100.00
2022-10-01T08:46:14.226Z,100.00
2022-10-01T08:49:41.174Z,100.00
2022-10-01T08:52:58.309Z,100.00
2022-10-01T08:56:09.166Z,100.00
2022-10-01T08:59:39.195Z,100.00
2022-10-01T09:02:43.216Z,100.00
2022-10-01T09:06:30.185Z,100.00
2022-10-01T09:09:54.568Z,100.00
2022-10-01T09:13:34.221Z,100.00
2022-10-01T09:16:56.183Z,100.00
2022-10-01T09:20:26.988Z,100.00
2022-10-01T09:24:06.171Z,100.00
2022-10-01T09:27:24.222Z,100.00
2022-10-01T09:30:39.181Z,100.00
2022-10-01T09:33:56.203Z,100.00
2022-10-01T09:37:30.242Z,100.00
2022-10-01T09:40:49.170Z,100.00
2022-10-01T09:43:57.725Z,100.00
2022-10-01T09:47:39.376Z,100.00
2022-10-01T09:51:00.218Z,100.00
2022-10-01T09:54:13.230Z,100.00
2022-10-01T09:57:34.190Z,100.00
2022-10-01T10:00:44.028Z,100.00
2022-10-01T10:04:01.186Z,100.00
2022-10-01T10:07:25.202Z,100.00
2022-10-01T10:10:33.061Z,100.00
2022-10-01T10:13:56.182Z,100.00
2022-10-01T10:17:14.188Z,100.00
2022-10-01T10:20:44.183Z,100.00
2022-10-01T10:24:04.208Z,100.00
2022-10-01T10:27:34.213Z,100.00
2022-10-01T10:30:49.202Z,100.00
2022-10-01T10:34:18.178Z,100.00
2022-10-01T10:37:34.170Z,100.00
2022-10-01T10:40:45.385Z,100.00
2022-10-01T10:43:55.199Z,100.00
2022-10-01T10:47:14.230Z,100.00
2022-10-01T10:50:37.752Z,100.00
2022-10-01T10:53:49.176Z,100.00
2022-10-01T10:57:11.206Z,100.00
2022-10-01T11:00:24.441Z,100.00
2022-10-01T11:03:39.304Z,100.00
2022-10-01T11:06:58.997Z,100.00
2022-10-01T11:10:26.234Z,100.00
2022-10-01T11:13:44.202Z,100.00
2022-10-01T11:17:13.349Z,100.00
2022-10-01T11:20:45.191Z,100.00
2022-10-01T11:24:12.229Z,100.00
2022-10-01T11:27:35.823Z,100.00
2022-10-01T11:31:02.248Z,100.00
2022-10-01T11:34:28.178Z,100.00
2022-10-01T11:37:51.817Z,100.00
2022-10-01T11:41:27.201Z,100.00
2022-10-01T11:44:46.219Z,100.00
2022-10-01T11:48:04.536Z,100.00
2022-10-01T11:51:29.186Z,100.00
2022-10-01T11:54:34.780Z,100.00
2022-10-01T11:58:11.183Z,100.00
2022-10-01T12:01:32.307Z,100.00
2022-10-01T12:04:58.280Z,100.00
2022-10-01T12:08:18.200Z,100.00
2022-10-01T12:11:52.270Z,100.00
2022-10-01T12:15:09.314Z,100.00
2022-10-01T12:18:54.191Z,100.00
2022-10-01T12:22:15.012Z,100.00
2022-10-01T12:25:38.185Z,100.00
2022-10-01T12:29:10.215Z,99.14
2022-10-01T12:32:33.334Z,98.10
2022-10-01T12:36:03.205Z,99.89
2022-10-01T12:39:30.198Z,100.00
2022-10-01T12:43:04.035Z,100.00
2022-10-01T12:46:31.302Z,100.00
2022-10-01T12:49:54.212Z,100.00
2022-10-01T12:53:21.907Z,100.00
2022-10-01T12:56:45.203Z,100.00
2022-10-01T13:00:06.212Z,100.00
2022-10-01T13:03:26.842Z,100.00
2022-10-01T13:06:47.223Z,100.00
2022-10-01T13:10:12.215Z,100.00
2022-10-01T13:13:39.092Z,100.00
2022-10-01T13:16:56.192Z,100.00
2022-10-01T13:20:42.218Z,100.00
2022-10-01T13:24:00.766Z,100.00
2022-10-01T13:27:36.261Z,100.00
2022-10-01T13:31:02.269Z,100.00
2022-10-01T13:34:37.025Z,100.00
2022-10-01T13:37:52.197Z,100.00
2022-10-01T13:41:10.219Z,100.00
2022-10-01T13:44:34.594Z,100.00
2022-10-01T13:47:43.227Z,100.00
2022-10-01T13:51:02.186Z,100.00
2022-10-01T13:54:30.253Z,99.42
2022-10-01T13:57:45.215Z,100.00
2022-10-01T14:00:56.693Z,100.00
2022-10-01T14:04:28.230Z,100.00
2022-10-01T14:07:35.694Z,100.00
2022-10-01T14:10:56.209Z,100.00
2022-10-01T14:14:41.205Z,100.00
2022-10-01T14:17:45.747Z,100.00
2022-10-01T14:21:22.219Z,100.00
2022-10-01T14:25:07.239Z,100.00
2022-10-01T14:28:33.231Z,100.00
2022-10-01T14:32:16.237Z,100.00
2022-10-01T14:35:45.306Z,100.00
2022-10-01T14:39:17.100Z,100.00
2022-10-01T14:42:25.209Z,100.00
2022-10-01T14:45:40.224Z,100.00
2022-10-01T14:48:43.084Z,100.00
2022-10-01T14:52:05.221Z,100.00
2022-10-01T14:55:16.562Z,100.00
2022-10-01T14:58:50.464Z,100.00
2022-10-01T15:02:08.229Z,100.00
2022-10-01T15:05:26.846Z,100.00
2022-10-01T15:08:53.210Z,100.00
2022-10-01T15:12:04.721Z,100.00
2022-10-01T15:15:35.199Z,100.00
2022-10-01T15:18:37.158Z,100.00
2022-10-01T15:22:04.229Z,100.00
2022-10-01T15:25:20.760Z,100.00
2022-10-01T15:28:38.245Z,100.00
2022-10-01T15:31:49.398Z,100.00
2022-10-01T15:35:07.215Z,100.00
2022-10-01T15:38:17.233Z,100.00
2022-10-01T15:41:36.232Z,100.00
2022-10-01T15:44:49.137Z,100.00
2022-10-01T15:47:59.230Z,100.00
2022-10-01T15:51:34.226Z,100.00
2022-10-01T15:54:36.922Z,100.00
2022-10-01T15:57:52.242Z,100.00
2022-10-01T16:01:07.910Z,100.00
2022-10-01T16:04:19.257Z,100.00
2022-10-01T16:07:30.654Z,100.00
2022-10-01T16:10:41.227Z,100.00
2022-10-01T16:13:51.512Z,100.00
2022-10-01T16:17:25.246Z,100.00
2022-10-01T16:20:51.120Z,100.00
2022-10-01T16:23:54.666Z,100.00
2022-10-01T16:27:09.227Z,100.00
2022-10-01T16:30:33.261Z,100.00
2022-10-01T16:33:41.232Z,100.00
2022-10-01T16:36:56.238Z,100.00
2022-10-01T16:39:57.960Z,100.00
2022-10-01T16:43:14.228Z,100.00
2022-10-01T16:46:29.239Z,100.00
2022-10-01T16:49:38.262Z,100.00
2022-10-01T16:52:53.240Z,100.00
2022-10-01T16:56:08.250Z,100.00
2022-10-01T16:59:17.038Z,99.26
2022-10-01T17:02:32.306Z,99.39
2022-10-01T17:05:47.214Z,100.00
2022-10-01T17:08:49.051Z,100.00
2022-10-01T17:12:04.267Z,100.00
2022-10-01T17:15:18.744Z,98.53
2022-10-01T17:18:27.243Z,90.52
2022-10-01T17:21:43.290Z,89.21
2022-10-01T17:24:51.732Z,85.61
2022-10-01T17:28:00.294Z,84.03
2022-10-01T17:31:17.827Z,78.31
2022-10-01T17:34:33.249Z,79.21
2022-10-01T17:37:49.241Z,79.32
2022-10-01T17:41:06.269Z,78.48
2022-10-01T17:44:14.224Z,76.86
2022-10-01T17:47:22.851Z,72.81
2022-10-01T17:50:37.241Z,72.51
2022-10-01T17:53:42.532Z,72.41
2022-10-01T17:57:01.263Z,74.29
2022-10-01T18:00:16.247Z,76.27
2022-10-01T18:03:24.279Z,78.26
2022-10-01T18:06:33.241Z,77.62
2022-10-01T18:09:42.251Z,75.92
2022-10-01T18:12:57.264Z,76.80
2022-10-01T18:16:10.302Z,78.47
2022-10-01T18:19:52.825Z,80.14
2022-10-01T18:23:03.252Z,81.18
2022-10-01T18:26:11.970Z,82.90
2022-10-01T18:29:25.243Z,83.22
2022-10-01T18:32:40.617Z,84.54
2022-10-01T18:36:04.247Z,84.61
2022-10-01T18:39:25.265Z,85.48
2022-10-01T18:43:19.250Z,87.11
2022-10-01T18:46:34.337Z,86.28
2022-10-01T18:50:14.231Z,84.65
2022-10-01T18:53:34.508Z,84.32
2022-10-01T18:57:11.248Z,84.06
2022-10-01T19:00:28.248Z,83.62
2022-10-01T19:03:39.483Z,84.12
2022-10-01T19:06:59.258Z,83.85
2022-10-01T19:10:29.295Z,85.15
2022-10-01T19:14:11.836Z,88.65
2022-10-01T19:17:49.262Z,91.27
2022-10-01T19:21:21.604Z,93.20
2022-10-01T19:25:01.255Z,94.17
2022-10-01T19:28:35.464Z,94.21
2022-10-01T19:32:06.261Z,93.54
2022-10-01T19:35:50.256Z,92.12
2022-10-01T19:39:11.248Z,93.72
2022-10-01T19:42:23.408Z,95.10
2022-10-01T19:46:14.318Z,95.19
2022-10-01T19:49:36.264Z,95.62
2022-10-01T19:52:40.502Z,96.63
2022-10-01T19:55:58.252Z,97.81
2022-10-01T19:59:22.239Z,97.47
2022-10-01T20:02:53.316Z,98.23
2022-10-01T20:06:05.025Z,99.00
2022-10-01T20:09:41.279Z,100.00
2022-10-01T20:12:59.147Z,100.00
2022-10-01T20:16:33.681Z,100.00
2022-10-01T20:19:35.709Z,100.00
2022-10-01T20:23:19.279Z,100.00
2022-10-01T20:27:00.246Z,100.00
2022-10-01T20:30:15.265Z,100.00
2022-10-01T20:33:38.252Z,100.00
2022-10-01T20:37:07.262Z,100.00
2022-10-01T20:40:30.253Z,100.00
2022-10-01T20:43:59.138Z,100.00
2022-10-01T20:47:25.259Z,100.00
2022-10-01T20:50:51.312Z,100.00
2022-10-01T20:54:03.155Z,100.00
2022-10-01T20:57:44.256Z,100.00
2022-10-01T21:01:08.350Z,100.00
2022-10-01T21:04:23.266Z,100.00
2022-10-01T21:08:11.284Z,100.00
2022-10-01T21:12:01.266Z,100.00
2022-10-01T21:15:13.061Z,100.00
2022-10-01T21:18:58.263Z,100.00
2022-10-01T21:22:35.274Z,100.00
2022-10-01T21:26:17.138Z,94.83
2022-10-01T21:29:44.295Z,94.90
2022-10-01T21:33:08.276Z,92.47
2022-10-01T21:36:27.104Z,89.79
2022-10-01T21:40:07.249Z,89.07
2022-10-01T21:43:40.264Z,88.65
2022-10-01T21:47:11.291Z,87.33
2022-10-01T21:50:42.329Z,86.78
2022-10-01T21:54:42.271Z,86.63
2022-10-01T21:57:49.935Z,87.50
2022-10-01T22:01:24.316Z,88.10
2022-10-01T22:04:47.272Z,89.69
2022-10-01T22:08:34.271Z,90.09
2022-10-01T22:12:03.252Z,90.87
2022-10-01T22:18:41.269Z,92.36
2022-10-01T22:22:02.287Z,94.51
2022-10-01T22:25:10.789Z,95.50
2022-10-01T22:28:24.335Z,96.53
2022-10-01T22:31:42.291Z,98.06
2022-10-01T22:34:54.743Z,98.05
2022-10-01T22:38:22.258Z,99.57
2022-10-01T22:41:42.282Z,100.00
2022-10-01T22:44:57.296Z,100.00
2022-10-01T22:48:28.278Z,100.00
2022-10-01T22:52:05.298Z,100.00
2022-10-01T22:55:30.261Z,100.00
2022-10-01T22:59:01.269Z,100.00
2022-10-01T23:02:38.264Z,100.00
2022-10-01T23:05:56.291Z,100.00
2022-10-01T23:09:13.612Z,100.00
2022-10-01T23:12:47.293Z,100.00
2022-10-01T23:16:11.278Z,100.00
2022-10-01T23:19:52.256Z,99.17
2022-10-01T23:23:19.247Z,98.57
2022-10-01T23:26:37.517Z,94.29
2022-10-01T23:30:07.526Z,92.41
2022-10-01T23:33:44.264Z,91.86
2022-10-01T23:36:49.305Z,90.55
2022-10-01T23:40:27.278Z,92.51
2022-10-01T23:43:49.267Z,91.15
2022-10-01T23:46:52.953Z,91.67
2022-10-01T23:50:12.287Z,91.08
2022-10-01T23:53:18.768Z,91.66
2022-10-01T23:56:42.250Z,92.25
